createdAt,value
2023-03-01T00:01:19.574Z,95461.53
2023-03-01T00:03:46.661Z,95428.59
2023-03-01T00:06:13.707Z,95444.00
2023-03-01T00:08:40.773Z,95456.25
2023-03-01T00:11:20.152Z,95418.75
2023-03-01T00:13:49.254Z,95427.97
2023-03-01T00:16:24.751Z,95416.78
2023-03-01T00:18:51.886Z,95424.44
2023-03-01T00:21:18.812Z,95413.72
2023-03-01T00:23:45.425Z,95427.16
2023-03-01T00:26:14.466Z,95409.53
2023-03-01T00:28:41.889Z,95430.91
2023-03-01T00:31:15.159Z,95428.59
2023-03-01T00:33:42.011Z,95386.59
2023-03-01T00:36:09.620Z,95416.25
2023-03-01T00:38:41.132Z,95410.63
2023-03-01T00:41:09.616Z,95404.97
2023-03-01T00:43:38.730Z,95398.50
2023-03-01T00:46:08.440Z,95397.28
2023-03-01T00:48:35.310Z,95411.47
2023-03-01T00:51:06.713Z,95417.22
2023-03-01T00:53:34.049Z,95420.34
2023-03-01T00:56:01.047Z,95394.34
2023-03-01T00:58:27.874Z,95327.72
2023-03-01T01:00:54.595Z,95410.88
2023-03-01T01:03:21.199Z,95417.47
2023-03-01T01:05:47.783Z,95390.16
2023-03-01T01:08:14.597Z,95344.78
2023-03-01T01:10:41.192Z,95362.03
2023-03-01T01:13:07.953Z,95368.44
2023-03-01T01:15:35.956Z,95371.97
2023-03-01T01:18:02.962Z,95418.69
2023-03-01T01:20:29.944Z,95343.69
2023-03-01T01:22:56.606Z,95409.47
2023-03-01T01:25:25.976Z,95379.31
2023-03-01T01:27:52.792Z,95352.25
2023-03-01T01:30:19.541Z,95332.78
2023-03-01T01:32:46.232Z,95410.66
2023-03-01T01:35:12.845Z,95406.72
2023-03-01T01:37:39.420Z,95358.16
2023-03-01T01:40:06.467Z,95376.69
2023-03-01T01:42:33.262Z,95420.59
2023-03-01T01:45:30.084Z,95436.72
2023-03-01T01:48:01.869Z,95395.84
2023-03-01T01:50:38.680Z,95415.63
2023-03-01T01:53:15.982Z,95406.38
2023-03-01T01:55:46.894Z,95381.66
2023-03-01T01:58:18.957Z,95405.59
2023-03-01T02:00:45.867Z,95404.28
2023-03-01T02:03:20.676Z,95402.59
2023-03-01T02:06:07.501Z,95413.69
2023-03-01T02:08:38.810Z,95402.84
2023-03-01T02:11:06.729Z,95396.16
2023-03-01T02:13:35.004Z,95381.41
2023-03-01T02:16:09.259Z,95334.53
2023-03-01T02:18:36.149Z,95326.44
2023-03-01T02:21:31.228Z,95397.63
2023-03-01T02:24:04.551Z,95347.50
2023-03-01T02:26:49.484Z,95383.50
2023-03-01T02:29:16.236Z,95393.88
2023-03-01T02:31:43.177Z,95360.53
2023-03-01T02:34:16.439Z,95376.53
2023-03-01T02:36:50.521Z,95346.03
2023-03-01T02:39:22.688Z,95376.59
2023-03-01T02:41:53.063Z,95363.91
2023-03-01T02:44:20.324Z,95355.38
2023-03-01T02:46:55.238Z,95337.09
2023-03-01T02:49:26.957Z,95407.94
2023-03-01T02:52:17.572Z,95408.34
2023-03-01T02:55:20.048Z,95333.97
2023-03-01T02:57:51.662Z,95390.03
2023-03-01T03:00:26.183Z,95399.81
2023-03-01T03:02:55.218Z,95385.97
2023-03-01T03:05:25.206Z,95405.31
2023-03-01T03:07:52.543Z,95344.00
2023-03-01T03:10:24.856Z,95318.38
2023-03-01T03:12:55.761Z,95405.06
2023-03-01T03:15:23.113Z,95399.47
2023-03-01T03:17:50.665Z,95380.69
2023-03-01T03:20:20.318Z,95410.88
2023-03-01T03:22:49.626Z,95375.00
2023-03-01T03:25:17.950Z,95328.53
2023-03-01T03:27:46.603Z,95324.03
2023-03-01T03:30:17.221Z,95353.78
2023-03-01T03:32:53.391Z,95400.69
2023-03-01T03:35:31.178Z,95410.56
2023-03-01T03:38:03.084Z,95400.41
2023-03-01T03:40:50.382Z,95348.38
2023-03-01T03:43:22.473Z,95418.97
2023-03-01T03:45:51.381Z,95423.84
2023-03-01T03:48:19.488Z,95414.56
2023-03-01T03:50:52.583Z,95418.44
2023-03-01T03:53:21.244Z,95359.78
2023-03-01T03:58:50.829Z,95427.97
2023-03-01T04:01:36.417Z,95419.22
2023-03-01T04:04:05.221Z,95423.91
2023-03-01T04:06:32.564Z,95387.66
2023-03-01T04:09:03.404Z,95381.69
2023-03-01T04:11:30.091Z,95381.09
2023-03-01T04:13:59.397Z,95425.25
2023-03-01T04:16:26.865Z,95378.41
2023-03-01T04:18:54.565Z,95394.75
2023-03-01T04:21:21.653Z,95424.47
2023-03-01T04:23:48.296Z,95415.25
2023-03-01T04:26:15.042Z,95427.78
2023-03-01T04:28:47.085Z,95396.41
2023-03-01T04:31:19.557Z,95346.28
2023-03-01T04:33:49.617Z,95430.38
2023-03-01T04:36:17.648Z,95411.06
2023-03-01T04:38:48.432Z,95426.31
2023-03-01T04:41:18.359Z,95355.75
2023-03-01T04:43:45.434Z,95306.22
2023-03-01T04:46:15.590Z,95382.50
2023-03-01T04:48:44.258Z,95380.63
2023-03-01T04:51:14.478Z,95415.91
2023-03-01T04:53:42.796Z,95363.19
2023-03-01T04:56:09.961Z,95322.72
2023-03-01T04:58:36.934Z,95363.81
2023-03-01T05:01:16.613Z,95419.81
2023-03-01T05:03:48.873Z,95409.44
2023-03-01T05:06:16.872Z,95356.38
2023-03-01T05:08:45.084Z,95385.91
2023-03-01T05:11:12.733Z,95358.34
2023-03-01T05:13:40.330Z,95331.66
2023-03-01T05:16:07.991Z,95415.31
2023-03-01T05:18:36.001Z,95408.50
2023-03-01T05:21:05.190Z,95366.00
2023-03-01T05:23:34.061Z,95358.00
2023-03-01T05:26:02.191Z,95381.66
2023-03-01T05:28:29.456Z,95427.06
2023-03-01T05:30:56.340Z,95394.59
2023-03-01T05:33:23.517Z,95440.31
2023-03-01T05:35:52.842Z,95413.44
2023-03-01T05:38:20.798Z,95318.38
2023-03-01T05:40:49.343Z,95403.41
2023-03-01T05:43:17.621Z,95339.22
2023-03-01T05:45:47.822Z,95370.53
2023-03-01T05:48:15.075Z,95388.38
2023-03-01T05:50:49.479Z,95342.44
2023-03-01T05:53:22.414Z,95420.50
2023-03-01T05:55:50.889Z,95439.59
2023-03-01T05:58:20.893Z,95435.28
2023-03-01T06:00:53.975Z,95375.44
2023-03-01T06:03:24.935Z,95327.56
2023-03-01T06:05:57.467Z,95439.09
2023-03-01T06:08:25.440Z,95471.25
2023-03-01T06:10:52.901Z,95391.78
2023-03-01T06:13:20.266Z,95458.88
2023-03-01T06:15:48.044Z,95466.16
2023-03-01T06:18:17.119Z,95453.94
2023-03-01T06:20:57.729Z,95467.97
2023-03-01T06:23:27.141Z,95396.94
2023-03-01T06:25:54.584Z,95396.66
2023-03-01T06:28:21.698Z,95468.06
2023-03-01T06:30:48.863Z,95403.78
2023-03-01T06:33:15.702Z,95465.28
2023-03-01T06:35:42.494Z,95446.66
2023-03-01T06:38:10.544Z,95409.88
2023-03-01T06:40:37.596Z,95459.25
2023-03-01T06:43:04.875Z,95418.50
2023-03-01T06:45:32.228Z,95447.03
2023-03-01T06:48:07.226Z,95414.25
2023-03-01T06:50:37.139Z,95454.59
2023-03-01T06:53:07.077Z,95344.50
2023-03-01T06:55:34.642Z,95428.91
2023-03-01T06:58:03.743Z,95388.72
2023-03-01T07:00:32.953Z,95362.91
2023-03-01T07:03:01.508Z,95462.06
2023-03-01T07:05:31.177Z,95468.97
2023-03-01T07:07:58.057Z,95385.91
2023-03-01T07:10:25.362Z,95441.38
2023-03-01T07:12:55.807Z,95439.72
2023-03-01T07:15:22.419Z,95468.19
2023-03-01T07:17:51.676Z,95455.03
2023-03-01T07:20:20.028Z,95426.28
2023-03-01T07:22:46.732Z,95386.69
2023-03-01T07:25:13.449Z,95458.69
2023-03-01T07:27:40.147Z,95377.78
2023-03-01T07:30:07.559Z,95452.88
2023-03-01T07:32:34.382Z,95439.56
2023-03-01T07:35:01.186Z,95393.56
2023-03-01T07:37:27.857Z,95421.16
2023-03-01T07:39:54.681Z,95392.72
2023-03-01T07:42:21.864Z,95455.63
2023-03-01T07:44:48.610Z,95444.41
2023-03-01T07:47:15.293Z,95442.69
2023-03-01T07:49:42.243Z,95453.81
2023-03-01T07:52:12.023Z,95455.06
2023-03-01T07:54:40.027Z,95453.13
2023-03-01T07:57:07.280Z,95394.34
2023-03-01T07:59:34.533Z,95436.88
2023-03-01T08:02:01.303Z,95434.88
2023-03-01T08:04:28.052Z,95432.34
2023-03-01T08:06:55.848Z,95449.22
2023-03-01T08:09:22.721Z,95408.00
2023-03-01T08:11:49.445Z,95390.38
2023-03-01T08:14:16.096Z,95442.63
2023-03-01T08:16:43.002Z,95379.47
2023-03-01T08:19:12.801Z,95428.28
2023-03-01T08:21:40.049Z,95429.34
2023-03-01T08:24:07.999Z,95379.97
2023-03-01T08:26:35.128Z,95440.16
2023-03-01T08:29:02.609Z,95382.31
2023-03-01T08:31:32.584Z,95432.13
2023-03-01T08:34:01.494Z,95436.97
2023-03-01T08:36:34.840Z,95410.63
2023-03-01T08:39:01.550Z,95396.22
2023-03-01T08:41:28.563Z,95440.78
2023-03-01T08:43:59.645Z,95382.63
2023-03-01T08:46:27.605Z,95396.81
2023-03-01T08:48:54.341Z,95384.91
2023-03-01T08:51:22.524Z,95393.56
2023-03-01T08:53:49.952Z,95415.78
2023-03-01T08:56:17.601Z,95377.31
2023-03-01T08:58:49.124Z,95347.91
2023-03-01T09:01:18.554Z,95355.31
2023-03-01T09:03:45.991Z,95408.09
2023-03-01T09:06:13.443Z,95393.00
2023-03-01T09:08:43.327Z,95413.03
2023-03-01T09:11:11.971Z,95438.91
2023-03-01T09:13:39.056Z,95431.59
2023-03-01T09:16:08.043Z,95379.28
2023-03-01T09:18:36.000Z,95410.78
2023-03-01T09:21:15.407Z,95401.97
2023-03-01T09:23:44.981Z,95392.84
2023-03-01T09:26:14.414Z,95374.56
2023-03-01T09:28:42.218Z,95412.56
2023-03-01T09:31:09.304Z,95423.66
2023-03-01T09:33:36.185Z,95369.06
2023-03-01T09:36:08.167Z,95378.88
2023-03-01T09:38:35.269Z,95346.16
2023-03-01T09:41:02.379Z,95398.66
2023-03-01T09:43:56.563Z,95400.38
2023-03-01T09:46:25.031Z,95392.09
2023-03-01T09:48:54.570Z,95402.16
2023-03-01T09:51:28.357Z,95351.19
2023-03-01T09:53:57.065Z,95398.06
2023-03-01T09:56:33.590Z,95386.84
2023-03-01T09:59:15.698Z,95399.97
2023-03-01T10:01:50.681Z,95375.41
2023-03-01T10:04:42.417Z,95348.81
2023-03-01T10:07:12.177Z,95401.28
2023-03-01T10:09:45.755Z,95397.03
2023-03-01T10:12:21.560Z,95347.53
2023-03-01T10:15:07.797Z,95329.13
2023-03-01T10:17:39.814Z,95396.97
2023-03-01T10:20:17.807Z,95380.03
2023-03-01T10:22:51.365Z,95285.91
2023-03-01T10:25:36.884Z,95389.84
2023-03-01T10:28:24.522Z,95315.84
2023-03-01T10:30:52.657Z,95359.13
2023-03-01T10:33:28.715Z,95335.38
2023-03-01T10:35:55.575Z,95359.97
2023-03-01T10:38:22.795Z,95387.88
2023-03-01T10:41:02.301Z,95355.16
2023-03-01T10:43:50.655Z,95350.84
2023-03-01T10:46:32.602Z,95305.88
2023-03-01T10:49:21.077Z,95314.25
2023-03-01T10:51:50.903Z,95310.75
2023-03-01T10:54:26.488Z,95373.69
2023-03-01T10:56:56.609Z,95367.41
2023-03-01T10:59:34.720Z,95299.91
2023-03-01T11:02:23.348Z,95366.00
2023-03-01T11:05:01.620Z,95371.13
2023-03-01T11:07:28.633Z,95350.56
2023-03-01T11:09:55.995Z,95384.09
2023-03-01T11:12:23.181Z,95309.91
2023-03-01T11:14:52.365Z,95363.94
2023-03-01T11:17:36.654Z,95363.94
2023-03-01T11:20:22.136Z,95369.13
2023-03-01T11:22:59.351Z,95368.13
2023-03-01T11:25:30.514Z,95345.22
2023-03-01T11:28:00.593Z,95326.44
2023-03-01T11:30:33.356Z,95284.56
2023-03-01T11:33:06.122Z,95352.00
2023-03-01T11:35:34.343Z,95347.94
2023-03-01T11:38:00.971Z,95347.94
2023-03-01T11:40:34.731Z,95322.91
2023-03-01T11:43:20.070Z,95336.72
2023-03-01T11:46:08.312Z,95332.94
2023-03-01T11:48:53.590Z,95345.06
2023-03-01T11:51:44.605Z,95309.75
2023-03-01T11:54:17.138Z,95319.09
2023-03-01T11:57:03.220Z,95251.94
2023-03-01T11:59:38.804Z,95309.50
2023-03-01T12:02:20.716Z,95266.50
2023-03-01T12:04:59.816Z,95323.19
2023-03-01T12:07:51.899Z,95320.53
2023-03-01T12:10:22.736Z,95279.06
2023-03-01T12:13:32.450Z,95304.06
2023-03-01T12:16:08.897Z,95302.94
2023-03-01T12:18:48.510Z,95300.69
2023-03-01T12:21:36.377Z,95255.91
2023-03-01T12:24:21.809Z,95298.56
2023-03-01T12:26:55.770Z,95300.72
2023-03-01T12:29:31.590Z,95282.03
2023-03-01T12:32:05.826Z,95298.22
2023-03-01T12:34:42.561Z,95282.91
2023-03-01T12:37:39.635Z,95297.47
2023-03-01T12:40:25.730Z,95284.31
2023-03-01T12:43:09.267Z,95292.34
2023-03-01T12:49:35.696Z,95284.97
2023-03-01T12:52:31.981Z,95217.47
2023-03-01T12:55:03.610Z,95259.66
2023-03-01T12:57:48.024Z,95284.97
2023-03-01T13:00:36.746Z,95298.97
2023-03-01T13:03:28.122Z,95290.72
2023-03-01T13:06:24.169Z,95288.31
2023-03-01T13:09:16.890Z,95283.97
2023-03-01T13:11:46.844Z,95293.06
2023-03-01T13:14:23.963Z,95296.19
2023-03-01T13:16:52.562Z,95206.81
2023-03-01T13:19:27.012Z,95313.63
2023-03-01T13:21:55.816Z,95283.47
2023-03-01T13:24:40.036Z,95277.47
2023-03-01T13:27:19.094Z,95292.66
2023-03-01T13:29:57.713Z,95292.88
2023-03-01T13:32:48.830Z,95274.84
2023-03-01T13:35:16.212Z,95300.59
2023-03-01T13:37:43.354Z,95245.88
2023-03-01T13:40:23.594Z,95296.47
2023-03-01T13:43:04.877Z,95282.16
2023-03-01T13:45:43.611Z,95296.47
2023-03-01T13:48:17.333Z,95283.47
2023-03-01T13:50:58.982Z,95291.59
2023-03-01T13:53:29.037Z,95241.44
2023-03-01T13:56:02.977Z,95213.50
2023-03-01T13:58:34.668Z,95255.63
2023-03-01T14:01:06.557Z,95287.72
2023-03-01T14:03:35.427Z,95284.25
2023-03-01T14:06:13.191Z,95285.03
2023-03-01T14:08:43.258Z,95227.50
2023-03-01T14:11:36.032Z,95272.47
2023-03-01T14:14:08.561Z,95270.75
2023-03-01T14:17:01.167Z,95269.75
2023-03-01T14:19:33.477Z,95276.13
2023-03-01T14:22:30.099Z,95272.97
2023-03-01T14:25:02.225Z,95278.53
2023-03-01T14:27:40.512Z,95270.25
2023-03-01T14:30:19.909Z,95275.09
2023-03-01T14:32:57.762Z,95252.66
2023-03-01T14:35:30.297Z,95248.94
2023-03-01T14:37:57.120Z,95254.94
2023-03-01T14:40:25.891Z,95262.03
2023-03-01T14:42:53.548Z,95219.28
2023-03-01T14:45:21.034Z,95275.22
2023-03-01T14:47:48.507Z,95214.66
2023-03-01T14:50:26.552Z,95246.13
2023-03-01T14:52:58.005Z,95256.16
2023-03-01T14:55:47.018Z,95267.31
2023-03-01T14:58:15.618Z,95264.47
2023-03-01T15:01:00.486Z,95189.13
2023-03-01T15:03:39.674Z,95215.41
2023-03-01T15:06:08.529Z,95220.34
2023-03-01T15:08:38.149Z,95213.34
2023-03-01T15:11:25.572Z,95250.28
2023-03-01T15:13:53.339Z,95243.53
2023-03-01T15:16:25.721Z,95227.69
2023-03-01T15:19:07.555Z,95197.25
2023-03-01T15:21:44.518Z,95174.09
2023-03-01T15:24:23.240Z,95261.97
2023-03-01T15:26:58.902Z,95243.31
2023-03-01T15:29:34.495Z,95213.06
2023-03-01T15:32:28.403Z,95172.00
2023-03-01T15:34:56.291Z,95259.50
2023-03-01T15:37:50.619Z,95254.84
2023-03-01T15:40:32.624Z,95259.31
2023-03-01T15:43:05.036Z,95256.13
2023-03-01T15:45:34.966Z,95257.72
2023-03-01T15:48:15.115Z,95171.25
2023-03-01T15:50:42.155Z,95250.13
2023-03-01T15:53:12.907Z,95243.25
2023-03-01T15:55:39.767Z,95232.94
2023-03-01T15:58:26.052Z,95195.81
2023-03-01T16:01:01.897Z,95166.06
2023-03-01T16:03:29.906Z,95214.66
2023-03-01T16:06:01.729Z,95223.28
2023-03-01T16:08:31.941Z,95125.81
2023-03-01T16:11:01.007Z,95188.88
2023-03-01T16:13:34.375Z,95164.94
2023-03-01T16:16:01.869Z,95260.41
2023-03-01T16:18:42.911Z,95096.16
2023-03-01T16:21:23.829Z,95244.59
2023-03-01T16:23:52.074Z,95159.41
2023-03-01T16:26:21.368Z,95185.81
2023-03-01T16:28:48.435Z,95192.72
2023-03-01T16:31:19.443Z,95199.66
2023-03-01T16:33:50.664Z,95230.72
2023-03-01T16:36:20.173Z,95198.13
2023-03-01T16:38:47.298Z,95187.19
2023-03-01T16:41:16.423Z,95228.63
2023-03-01T16:43:43.851Z,95178.94
2023-03-01T16:46:15.667Z,95233.84
2023-03-01T16:48:42.621Z,95205.69
2023-03-01T16:51:09.671Z,95206.44
2023-03-01T16:53:37.439Z,95214.44
2023-03-01T16:56:06.635Z,95192.41
2023-03-01T16:58:33.413Z,95167.34
2023-03-01T17:01:08.734Z,95207.13
2023-03-01T17:03:35.977Z,95226.88
2023-03-01T17:06:05.112Z,95229.81
2023-03-01T17:08:32.355Z,95163.69
2023-03-01T17:11:11.050Z,95212.75
2023-03-01T17:13:38.339Z,95158.16
2023-03-01T17:16:06.985Z,95236.91
2023-03-01T17:18:35.391Z,95236.91
2023-03-01T17:21:03.661Z,95254.66
2023-03-01T17:23:31.350Z,95181.75
2023-03-01T17:25:58.486Z,95181.75
2023-03-01T17:28:32.578Z,95241.56
2023-03-01T17:31:02.238Z,95241.38
2023-03-01T17:33:32.465Z,95226.66
2023-03-01T17:35:59.935Z,95246.25
2023-03-01T17:38:27.009Z,95196.28
2023-03-01T17:40:53.741Z,95212.34
2023-03-01T17:43:20.450Z,95227.16
2023-03-01T17:45:52.425Z,95244.50
2023-03-01T17:48:19.365Z,95249.38
2023-03-01T17:50:47.256Z,95202.25
2023-03-01T17:53:14.516Z,95269.69
2023-03-01T17:55:43.220Z,95239.41
2023-03-01T17:58:13.425Z,95240.19
2023-03-01T18:00:40.444Z,95266.13
2023-03-01T18:03:07.437Z,95209.09
2023-03-01T18:05:35.673Z,95210.72
2023-03-01T18:08:02.421Z,95258.94
2023-03-01T18:10:29.100Z,95220.31
2023-03-01T18:12:55.906Z,95255.91
2023-03-01T18:15:24.057Z,95240.00
2023-03-01T18:17:50.784Z,95263.44
2023-03-01T18:20:19.011Z,95259.66
2023-03-01T18:22:45.966Z,95266.06
2023-03-01T18:25:13.493Z,95268.22
2023-03-01T18:27:40.161Z,95209.03
2023-03-01T18:30:08.711Z,95262.00
2023-03-01T18:32:35.895Z,95262.63
2023-03-01T18:35:02.701Z,95248.91
2023-03-01T18:37:29.391Z,95263.81
2023-03-01T18:39:56.164Z,95266.44
2023-03-01T18:42:22.875Z,95230.38
2023-03-01T18:44:49.874Z,95279.41
2023-03-01T18:47:17.193Z,95222.22
2023-03-01T18:49:44.742Z,95287.84
2023-03-01T18:52:11.639Z,95259.09
2023-03-01T18:54:38.327Z,95239.22
2023-03-01T18:57:05.219Z,95257.16
2023-03-01T18:59:32.320Z,95278.41
2023-03-01T19:01:59.048Z,95287.09
2023-03-01T19:04:26.970Z,95226.88
2023-03-01T19:06:54.115Z,95241.94
2023-03-01T19:09:20.943Z,95261.38
2023-03-01T19:11:47.725Z,95224.13
2023-03-01T19:14:14.503Z,95285.91
2023-03-01T19:16:41.449Z,95232.03
2023-03-01T19:19:10.022Z,95233.03
2023-03-01T19:21:37.374Z,95240.19
2023-03-01T19:24:05.097Z,95257.91
2023-03-01T19:26:32.923Z,95253.41
2023-03-01T19:29:00.265Z,95289.03
2023-03-01T19:31:29.605Z,95261.72
2023-03-01T19:34:16.001Z,95292.16
2023-03-01T19:36:43.970Z,95282.16
2023-03-01T19:39:13.619Z,95238.47
2023-03-01T19:41:41.475Z,95295.66
2023-03-01T19:44:10.084Z,95295.25
2023-03-01T19:46:37.324Z,95259.91
2023-03-01T19:49:05.016Z,95216.63
2023-03-01T19:51:36.925Z,95299.31
2023-03-01T19:54:05.887Z,95306.66
2023-03-01T19:56:34.044Z,95226.38
2023-03-01T19:59:04.162Z,95306.72
2023-03-01T20:01:42.534Z,95324.13
2023-03-01T20:07:49.285Z,95187.34
2023-03-01T20:10:48.075Z,95204.63
2023-03-01T20:13:24.266Z,95187.81
2023-03-01T20:24:34.522Z,95337.03
2023-03-01T20:33:31.508Z,95335.94
2023-03-01T20:53:36.471Z,95330.81
2023-03-01T20:56:04.621Z,95333.22
2023-03-01T20:58:32.959Z,95272.69
2023-03-01T21:00:59.964Z,95314.06
2023-03-01T21:03:26.834Z,95249.72
2023-03-01T21:06:02.083Z,95275.94
2023-03-01T21:08:29.785Z,95305.19
2023-03-01T21:10:57.438Z,95333.13
2023-03-01T21:13:26.834Z,95311.22
2023-03-01T21:16:01.148Z,95293.69
2023-03-01T21:18:31.640Z,95260.00
2023-03-01T21:21:01.941Z,95235.34
2023-03-01T21:23:30.603Z,95325.34
2023-03-01T21:26:07.567Z,95214.22
2023-03-01T21:28:35.318Z,95320.44
2023-03-01T21:31:06.969Z,95331.31
2023-03-01T21:33:34.584Z,95289.34
2023-03-01T21:36:11.521Z,95341.03
2023-03-01T21:38:40.730Z,95210.59
2023-03-01T21:41:12.556Z,95344.97
2023-03-01T21:43:40.379Z,95273.88
2023-03-01T21:46:10.653Z,95308.47
2023-03-01T21:48:39.912Z,95264.25
2023-03-01T21:51:08.893Z,95277.97
2023-03-01T21:53:36.173Z,95338.84
2023-03-01T21:56:03.060Z,95337.56
2023-03-01T21:58:35.987Z,95312.69
2023-03-01T22:01:17.238Z,95324.88
2023-03-01T22:03:45.437Z,95203.25
2023-03-01T22:06:35.376Z,95309.16
2023-03-01T22:09:08.808Z,95322.59
2023-03-01T22:11:38.051Z,95267.91
2023-03-01T22:14:05.024Z,95335.69
2023-03-01T22:16:36.600Z,95322.31
2023-03-01T22:19:05.054Z,95327.00
2023-03-01T22:21:31.937Z,95323.75
2023-03-01T22:23:59.078Z,95321.88
2023-03-01T22:26:32.203Z,95328.47
2023-03-01T22:29:01.922Z,95249.94
2023-03-01T22:31:28.960Z,95328.81
2023-03-01T22:33:57.605Z,95285.31
2023-03-01T22:36:24.746Z,95273.13
2023-03-01T22:38:58.565Z,95326.19
2023-03-01T22:41:36.227Z,95337.09
2023-03-01T22:44:04.270Z,95289.75
2023-03-01T22:46:33.250Z,95327.84
2023-03-01T22:49:01.747Z,95234.13
2023-03-01T22:51:31.746Z,95327.00
2023-03-01T22:53:59.048Z,95308.81
2023-03-01T22:56:31.960Z,95292.25
2023-03-01T22:59:01.235Z,95269.28
2023-03-01T23:01:28.827Z,95263.84
2023-03-01T23:03:56.413Z,95323.00
2023-03-01T23:06:24.047Z,95201.19
2023-03-01T23:08:55.216Z,95326.53
2023-03-01T23:11:23.299Z,95303.72
2023-03-01T23:13:50.775Z,95303.03
2023-03-01T23:16:17.867Z,95274.88
2023-03-01T23:18:45.241Z,95248.19
2023-03-01T23:21:14.559Z,95311.06
2023-03-01T23:23:42.189Z,95310.75
2023-03-01T23:26:09.486Z,95301.66
2023-03-01T23:28:40.622Z,95284.56
2023-03-01T23:31:10.598Z,95266.50
2023-03-01T23:33:39.972Z,95222.22
2023-03-01T23:36:21.579Z,95300.97
2023-03-01T23:38:50.498Z,95255.69
2023-03-01T23:41:19.582Z,95328.63
2023-03-01T23:43:47.587Z,95303.88
2023-03-01T23:46:15.905Z,95319.75
2023-03-01T23:48:43.252Z,95231.66
2023-03-01T23:51:11.078Z,95243.91
2023-03-01T23:53:41.522Z,95310.13
2023-03-01T23:56:10.711Z,95313.88
2023-03-01T23:58:39.200Z,95230.16
